createdAt,value
2019-06-07T00:00:38.418Z,99.99
2019-06-07T00:01:21.598Z,99.99
2019-06-07T00:02:21.560Z,99.99
2019-06-07T00:03:29.515Z,99.99
2019-06-07T00:04:21.659Z,99.99
2019-06-07T00:06:25.358Z,99.99
2019-06-07T00:08:28.028Z,99.99
2019-06-07T00:09:22.689Z,99.99
2019-06-07T00:11:21.512Z,99.99
2019-06-07T00:12:21.770Z,99.99
2019-06-07T00:13:21.585Z,99.99
2019-06-07T00:14:21.417Z,99.99
2019-06-07T00:15:28.436Z,99.99
2019-06-07T00:16:23.250Z,99.99
2019-06-07T00:18:25.876Z,99.99
2019-06-07T00:19:21.191Z,99.99
2019-06-07T00:20:23.586Z,99.99
2019-06-07T00:22:32.613Z,99.99
2019-06-07T00:23:22.936Z,99.99
2019-06-07T00:24:22.072Z,99.99
2019-06-07T00:25:24.331Z,99.99
2019-06-07T00:26:21.474Z,99.99
2019-06-07T00:27:22.646Z,99.99
2019-06-07T00:29:21.830Z,99.99
2019-06-07T00:30:50.577Z,99.99
2019-06-07T00:31:24.410Z,99.99
2019-06-07T00:32:22.103Z,99.99
2019-06-07T00:33:24.318Z,99.99
2019-06-07T00:34:23.046Z,99.99
2019-06-07T00:35:22.549Z,99.99
2019-06-07T00:37:25.110Z,99.99
2019-06-07T00:38:21.969Z,99.99
2019-06-07T00:39:25.365Z,99.99
2019-06-07T00:40:31.350Z,99.99
2019-06-07T00:41:22.284Z,99.99
2019-06-07T00:42:23.740Z,99.99
2019-06-07T00:43:28.054Z,99.99
2019-06-07T00:44:23.253Z,99.99
2019-06-07T00:45:23.959Z,99.99
2019-06-07T00:46:25.087Z,99.99
2019-06-07T00:47:25.016Z,99.99
2019-06-07T00:48:30.982Z,99.99
2019-06-07T00:49:36.086Z,99.99
2019-06-07T00:53:11.448Z,99.99
2019-06-07T00:53:30.985Z,99.99
2019-06-07T00:57:22.163Z,99.99
2019-06-07T00:59:24.397Z,99.99
2019-06-07T01:00:23.579Z,99.99
2019-06-07T01:01:24.864Z,99.99
2019-06-07T01:02:24.876Z,99.99
2019-06-07T01:03:25.196Z,99.99
2019-06-07T01:04:22.832Z,99.99
2019-06-07T01:05:28.129Z,99.99
2019-06-07T01:06:22.985Z,99.99
2019-06-07T01:09:23.921Z,99.99
2019-06-07T01:10:46.468Z,99.99
2019-06-07T01:11:22.108Z,99.99
2019-06-07T01:13:23.779Z,99.99
2019-06-07T01:14:22.656Z,99.99
2019-06-07T01:15:23.523Z,99.99
2019-06-07T01:16:22.275Z,99.99
2019-06-07T01:17:33.067Z,99.99
2019-06-07T01:18:41.130Z,99.99
2019-06-07T01:19:22.362Z,99.99
2019-06-07T01:21:24.828Z,99.99
2019-06-07T01:22:23.503Z,99.99
2019-06-07T01:24:03.380Z,99.99
2019-06-07T01:24:24.565Z,99.99
2019-06-07T01:25:23.789Z,99.99
2019-06-07T01:26:22.441Z,99.99
2019-06-07T01:27:22.554Z,99.99
2019-06-07T01:28:21.414Z,99.99
2019-06-07T01:29:22.283Z,99.99
2019-06-07T01:31:21.162Z,99.99
2019-06-07T01:32:21.109Z,99.99
2019-06-07T01:33:20.869Z,99.99
2019-06-07T01:34:21.143Z,99.99
2019-06-07T01:35:20.639Z,99.99
2019-06-07T01:36:22.339Z,99.99
2019-06-07T01:37:22.588Z,99.99
2019-06-07T01:38:22.898Z,99.99
2019-06-07T01:42:20.438Z,99.99
2019-06-07T01:43:23.284Z,99.99
2019-06-07T01:44:22.698Z,99.99
2019-06-07T01:45:21.221Z,99.99
2019-06-07T01:47:21.273Z,99.99
2019-06-07T01:48:22.801Z,99.99
2019-06-07T01:49:19.861Z,99.99
2019-06-07T01:50:23.309Z,99.99
2019-06-07T01:51:20.070Z,99.99
2019-06-07T01:52:24.494Z,99.99
2019-06-07T01:53:23.443Z,99.99
2019-06-07T01:54:52.117Z,99.99
2019-06-07T01:55:23.671Z,99.99
2019-06-07T01:56:21.723Z,99.99
2019-06-07T01:57:36.212Z,99.99
2019-06-07T01:58:19.877Z,99.99
2019-06-07T01:59:21.959Z,99.99
2019-06-07T02:01:21.134Z,99.99
2019-06-07T02:03:25.778Z,99.99
2019-06-07T02:06:21.043Z,99.99
2019-06-07T02:07:24.075Z,99.99
2019-06-07T02:08:20.441Z,99.99
2019-06-07T02:09:20.869Z,99.99
2019-06-07T02:10:20.390Z,99.99
2019-06-07T02:11:20.957Z,99.99
2019-06-07T02:12:31.232Z,99.99
2019-06-07T02:13:21.220Z,99.99
2019-06-07T02:14:19.657Z,99.99
2019-06-07T02:15:22.722Z,99.99
2019-06-07T02:16:19.524Z,99.99
2019-06-07T02:18:28.317Z,99.99
2019-06-07T02:20:20.329Z,99.99
2019-06-07T02:21:23.188Z,99.99
2019-06-07T02:22:21.479Z,99.99
2019-06-07T02:23:20.665Z,99.99
2019-06-07T02:24:24.439Z,99.99
2019-06-07T02:25:42.932Z,99.99
2019-06-07T02:26:20.436Z,99.99
2019-06-07T02:28:31.969Z,99.99
2019-06-07T02:29:19.114Z,99.99
2019-06-07T02:31:19.249Z,99.99
2019-06-07T02:32:19.043Z,99.99
2019-06-07T02:33:24.100Z,99.99
2019-06-07T02:34:18.997Z,99.99
2019-06-07T02:35:18.966Z,99.99
2019-06-07T02:36:18.954Z,99.99
2019-06-07T02:37:21.491Z,99.99
2019-06-07T02:38:18.903Z,99.99
2019-06-07T02:39:19.108Z,99.99
2019-06-07T02:40:19.110Z,99.99
2019-06-07T02:41:18.905Z,99.99
2019-06-07T02:43:18.880Z,99.99
2019-06-07T02:44:18.835Z,99.99
2019-06-07T02:45:18.843Z,99.99
2019-06-07T02:47:19.158Z,99.99
2019-06-07T02:48:18.647Z,99.99
2019-06-07T02:49:19.022Z,99.99
2019-06-07T02:50:18.692Z,99.99
2019-06-07T02:51:18.592Z,99.99
2019-06-07T02:52:18.657Z,99.99
2019-06-07T02:54:18.540Z,99.99
2019-06-07T02:55:18.879Z,99.99
2019-06-07T02:57:18.594Z,99.99
2019-06-07T02:58:18.598Z,99.99
2019-06-07T02:59:18.717Z,99.99
2019-06-07T03:00:41.730Z,99.99
2019-06-07T03:01:18.775Z,99.99
2019-06-07T03:02:18.487Z,99.99
2019-06-07T03:03:18.677Z,99.99
2019-06-07T03:04:18.354Z,99.99
2019-06-07T03:06:18.418Z,99.99
2019-06-07T03:07:19.080Z,99.99
2019-06-07T03:08:18.583Z,99.99
2019-06-07T03:09:18.449Z,99.99
2019-06-07T03:10:18.412Z,99.99
2019-06-07T03:11:18.301Z,99.99
2019-06-07T03:12:18.301Z,99.99
2019-06-07T03:13:18.315Z,99.99
2019-06-07T03:14:18.305Z,99.99
2019-06-07T03:15:32.979Z,99.99
2019-06-07T03:16:18.233Z,99.99
2019-06-07T03:18:18.304Z,99.99
2019-06-07T03:19:18.159Z,99.99
2019-06-07T03:20:18.177Z,99.99
2019-06-07T03:22:18.101Z,99.99
2019-06-07T03:23:18.739Z,99.99
2019-06-07T03:25:19.071Z,99.99
2019-06-07T03:27:41.526Z,99.99
2019-06-07T03:28:17.999Z,99.99
2019-06-07T03:29:18.250Z,99.99
2019-06-07T03:32:17.901Z,99.99
2019-06-07T03:34:17.981Z,99.99
2019-06-07T03:36:23.759Z,99.99
2019-06-07T03:37:17.868Z,99.99
2019-06-07T03:39:17.960Z,99.99
2019-06-07T03:40:17.780Z,99.99
2019-06-07T03:42:17.742Z,99.99
2019-06-07T03:43:18.016Z,99.99
2019-06-07T03:44:17.821Z,99.99
2019-06-07T03:45:17.774Z,99.99
2019-06-07T03:46:17.661Z,99.99
2019-06-07T03:47:17.582Z,99.99
2019-06-07T03:48:17.546Z,99.99
2019-06-07T03:49:17.841Z,99.99
2019-06-07T03:50:17.667Z,99.99
2019-06-07T03:51:25.185Z,99.99
2019-06-07T03:52:17.473Z,99.99
2019-06-07T03:55:17.417Z,99.99
2019-06-07T03:56:18.527Z,99.99
2019-06-07T03:58:31.398Z,99.99
2019-06-07T03:59:17.345Z,99.99
2019-06-07T04:00:17.421Z,99.99
2019-06-07T04:01:17.314Z,99.99
2019-06-07T04:02:17.674Z,99.99
2019-06-07T04:05:17.363Z,99.99
2019-06-07T04:06:17.358Z,99.99
2019-06-07T04:07:17.405Z,99.99
2019-06-07T04:08:17.313Z,99.99
2019-06-07T04:09:17.803Z,99.99
2019-06-07T04:10:17.459Z,99.99
2019-06-07T04:11:17.292Z,99.99
2019-06-07T04:12:17.176Z,99.99
2019-06-07T04:13:18.543Z,99.99
2019-06-07T04:14:17.197Z,99.99
2019-06-07T04:15:17.347Z,99.99
2019-06-07T04:16:17.332Z,99.99
2019-06-07T04:17:17.031Z,99.99
2019-06-07T04:18:16.998Z,99.99
2019-06-07T04:19:17.068Z,99.99
2019-06-07T04:20:17.149Z,99.99
2019-06-07T04:23:27.573Z,99.99
2019-06-07T04:24:17.419Z,99.99
2019-06-07T04:25:16.974Z,99.99
2019-06-07T04:26:16.846Z,99.99
2019-06-07T04:27:16.843Z,99.99
2019-06-07T04:28:16.858Z,99.99
2019-06-07T04:29:41.574Z,99.99
2019-06-07T04:30:16.819Z,99.99
2019-06-07T04:31:16.808Z,99.99
2019-06-07T04:32:16.780Z,99.99
2019-06-07T04:33:16.745Z,99.99
2019-06-07T04:34:16.905Z,99.99
2019-06-07T04:35:16.783Z,99.99
2019-06-07T04:36:16.963Z,99.99
2019-06-07T04:37:16.714Z,99.99
2019-06-07T04:39:16.782Z,99.99
2019-06-07T04:40:16.960Z,99.99
2019-06-07T04:41:16.721Z,99.99
2019-06-07T04:42:16.630Z,99.99
2019-06-07T04:43:16.930Z,99.99
2019-06-07T04:45:32.955Z,99.99
2019-06-07T04:47:16.910Z,99.99
2019-06-07T04:48:16.952Z,99.99
2019-06-07T04:49:16.547Z,99.99
2019-06-07T04:50:16.784Z,99.99
2019-06-07T04:51:17.154Z,99.99
2019-06-07T04:52:16.657Z,99.99
2019-06-07T04:53:16.516Z,99.99
2019-06-07T04:54:16.987Z,99.99
2019-06-07T04:58:17.506Z,99.99
2019-06-07T05:00:00.414Z,99.99
2019-06-07T05:00:46.870Z,99.99
2019-06-07T05:01:26.694Z,99.99
2019-06-07T05:02:16.303Z,99.99
2019-06-07T05:04:16.573Z,99.99
2019-06-07T05:05:16.135Z,99.99
2019-06-07T05:06:16.229Z,99.99
2019-06-07T05:07:16.277Z,99.99
2019-06-07T05:09:16.233Z,99.99
2019-06-07T05:10:16.524Z,99.99
2019-06-07T05:12:16.826Z,99.99
2019-06-07T05:13:16.197Z,99.99
2019-06-07T05:14:16.143Z,99.99
2019-06-07T05:15:16.033Z,99.99
2019-06-07T05:16:16.350Z,99.99
2019-06-07T05:19:15.993Z,99.99
2019-06-07T05:20:16.235Z,99.99
2019-06-07T05:21:15.838Z,99.99
2019-06-07T05:22:16.298Z,99.99
2019-06-07T05:23:59.254Z,99.99
2019-06-07T05:24:16.107Z,99.99
2019-06-07T05:25:15.864Z,99.99
2019-06-07T05:26:15.880Z,99.99
2019-06-07T05:27:16.018Z,99.99
2019-06-07T05:28:16.206Z,99.99
2019-06-07T05:29:15.951Z,99.99
2019-06-07T05:30:51.002Z,99.99
2019-06-07T05:31:15.746Z,99.99
2019-06-07T05:33:15.810Z,99.99
2019-06-07T05:35:16.146Z,99.99
2019-06-07T05:37:15.700Z,99.99
2019-06-07T05:39:15.775Z,99.99
2019-06-07T05:40:15.708Z,99.99
2019-06-07T05:41:16.065Z,99.99
2019-06-07T05:42:16.193Z,99.99
2019-06-07T05:43:15.603Z,99.99
2019-06-07T05:44:15.631Z,99.99
2019-06-07T05:45:15.784Z,99.99
2019-06-07T05:46:15.575Z,99.99
2019-06-07T05:47:15.472Z,99.99
2019-06-07T05:48:15.591Z,99.99
2019-06-07T05:49:15.782Z,99.99
2019-06-07T05:50:38.452Z,99.99
2019-06-07T05:51:15.810Z,99.99
2019-06-07T05:52:15.352Z,99.99
2019-06-07T05:54:15.711Z,99.99
2019-06-07T05:55:15.926Z,99.99
2019-06-07T05:56:15.858Z,99.99
2019-06-07T05:57:15.330Z,99.99
2019-06-07T05:58:15.720Z,99.99
2019-06-07T05:59:15.203Z,99.99
2019-06-07T06:00:15.606Z,99.99
2019-06-07T06:01:42.234Z,99.99
2019-06-07T06:02:22.701Z,99.99
2019-06-07T06:03:15.226Z,99.99
2019-06-07T06:06:15.309Z,99.99
2019-06-07T06:08:15.565Z,99.99
2019-06-07T06:09:15.215Z,99.99
2019-06-07T06:14:15.349Z,99.99
2019-06-07T06:18:14.980Z,99.99
2019-06-07T06:21:19.690Z,99.99
2019-06-07T06:23:14.909Z,99.99
2019-06-07T06:25:33.017Z,99.99
2019-06-07T06:26:15.062Z,99.99
2019-06-07T06:27:55.700Z,99.99
2019-06-07T06:28:16.191Z,99.99
2019-06-07T06:35:15.340Z,99.99
2019-06-07T06:36:14.692Z,99.72
2019-06-07T06:37:14.602Z,98.96
2019-06-07T06:38:14.829Z,98.47
2019-06-07T06:41:16.471Z,97.52
2019-06-07T06:42:15.004Z,98.19
2019-06-07T06:43:14.543Z,99.01
2019-06-07T06:44:14.636Z,98.24
2019-06-07T06:45:14.466Z,97.66
2019-06-07T06:47:14.519Z,97.28
2019-06-07T06:48:14.537Z,96.13
2019-06-07T06:50:14.737Z,96.03
2019-06-07T06:51:14.350Z,96.32
2019-06-07T06:52:14.587Z,96.70
2019-06-07T06:53:14.950Z,96.22
2019-06-07T06:54:14.626Z,95.65
2019-06-07T06:56:25.450Z,93.49
2019-06-07T06:57:19.659Z,93.68
2019-06-07T06:58:14.599Z,93.68
2019-06-07T06:59:37.503Z,94.54
2019-06-07T07:00:14.342Z,94.45
2019-06-07T07:02:14.755Z,93.49
2019-06-07T07:03:56.074Z,93.40
2019-06-07T07:04:14.336Z,92.15
2019-06-07T07:06:25.814Z,92.54
2019-06-07T07:08:14.754Z,90.61
2019-06-07T07:09:14.265Z,92.10
2019-06-07T07:10:14.202Z,93.06
2019-06-07T07:11:14.342Z,91.00
2019-06-07T07:13:14.681Z,88.07
2019-06-07T07:14:14.144Z,87.40
2019-06-07T07:15:14.436Z,86.30
2019-06-07T07:17:14.290Z,86.05
2019-06-07T07:18:14.292Z,85.82
2019-06-07T07:21:14.634Z,87.98
2019-06-07T07:22:14.601Z,89.32
2019-06-07T07:23:14.486Z,88.45
2019-06-07T07:24:21.692Z,89.32
2019-06-07T07:25:13.866Z,89.26
2019-06-07T07:26:13.884Z,88.21
2019-06-07T07:27:13.947Z,88.11
2019-06-07T07:29:14.098Z,87.15
2019-06-07T07:30:36.205Z,85.57
2019-06-07T07:31:13.832Z,84.70
2019-06-07T07:33:14.016Z,83.16
2019-06-07T07:36:35.624Z,83.54
2019-06-07T07:37:13.929Z,83.74
2019-06-07T07:38:13.899Z,84.31
2019-06-07T07:39:13.786Z,84.22
2019-06-07T07:40:55.754Z,84.94
2019-06-07T07:41:15.936Z,84.36
2019-06-07T07:42:21.294Z,83.49
2019-06-07T07:44:14.436Z,81.13
2019-06-07T07:45:13.719Z,79.40
2019-06-07T07:46:29.323Z,78.73
2019-06-07T07:47:13.989Z,78.73
2019-06-07T07:48:18.087Z,79.79
2019-06-07T07:49:13.612Z,76.61
2019-06-07T07:50:14.397Z,78.34
2019-06-07T07:53:13.473Z,79.25
2019-06-07T07:54:13.550Z,77.84
2019-06-07T07:55:13.595Z,76.01
2019-06-07T07:56:13.743Z,76.98
2019-06-07T07:59:13.404Z,76.88
2019-06-07T08:00:49.543Z,77.11
2019-06-07T08:01:13.708Z,75.48
2019-06-07T08:04:13.569Z,74.51
2019-06-07T08:06:13.591Z,72.88
2019-06-07T08:07:13.519Z,73.16
2019-06-07T08:08:13.845Z,74.13
2019-06-07T08:09:13.406Z,74.45
2019-06-07T08:10:13.493Z,72.43
2019-06-07T08:12:13.442Z,73.30
2019-06-07T08:14:14.064Z,71.08
2019-06-07T08:15:13.334Z,70.60
2019-06-07T08:16:16.489Z,71.50
2019-06-07T08:17:13.327Z,72.53
2019-06-07T08:18:13.330Z,74.49
2019-06-07T08:19:13.358Z,72.75
2019-06-07T08:20:13.665Z,71.50
2019-06-07T08:21:24.342Z,69.96
2019-06-07T08:22:13.233Z,70.15
2019-06-07T08:23:18.480Z,69.67
2019-06-07T08:24:13.365Z,70.92
2019-06-07T08:25:13.429Z,70.64
2019-06-07T08:26:13.965Z,70.15
2019-06-07T08:27:25.808Z,67.74
2019-06-07T08:28:13.447Z,69.38
2019-06-07T08:31:13.231Z,70.96
2019-06-07T08:33:25.933Z,68.10
2019-06-07T08:36:02.372Z,65.88
2019-06-07T08:36:21.821Z,67.14
2019-06-07T08:37:13.174Z,66.69
2019-06-07T08:38:26.017Z,64.66
2019-06-07T08:39:13.541Z,65.59
2019-06-07T08:40:13.651Z,65.63
2019-06-07T08:41:13.708Z,64.95
2019-06-07T08:42:21.097Z,64.76
2019-06-07T08:43:20.536Z,65.34
2019-06-07T08:44:23.161Z,65.85
2019-06-07T08:46:13.606Z,66.43
2019-06-07T08:47:20.465Z,67.72
2019-06-07T08:48:27.500Z,66.17
2019-06-07T08:49:13.008Z,62.60
2019-06-07T08:50:13.022Z,62.86
2019-06-07T08:53:12.918Z,63.76
2019-06-07T08:54:22.238Z,60.96
2019-06-07T08:55:12.911Z,64.14
2019-06-07T08:57:21.305Z,65.01
2019-06-07T08:58:13.615Z,63.98
2019-06-07T08:59:13.022Z,62.73
2019-06-07T09:00:43.055Z,59.34
2019-06-07T09:01:12.855Z,59.92
2019-06-07T09:02:23.340Z,60.99
2019-06-07T09:03:13.167Z,62.92
2019-06-07T09:04:13.014Z,63.98
2019-06-07T09:07:01.693Z,59.56
2019-06-07T09:07:19.601Z,58.02
2019-06-07T09:09:13.068Z,61.69
2019-06-07T09:10:15.229Z,58.50
2019-06-07T09:12:13.757Z,58.98
2019-06-07T09:13:13.140Z,62.18
2019-06-07T09:15:22.852Z,62.88
2019-06-07T09:16:12.843Z,58.82
2019-06-07T09:17:13.075Z,60.95
2019-06-07T09:18:44.220Z,61.24
2019-06-07T09:19:12.820Z,61.82
2019-06-07T09:20:35.004Z,62.04
2019-06-07T09:22:12.963Z,59.53
2019-06-07T09:23:17.354Z,60.30
2019-06-07T09:24:14.839Z,58.37
2019-06-07T09:25:21.203Z,57.18
2019-06-07T09:27:13.417Z,60.85
2019-06-07T09:28:19.419Z,61.33
2019-06-07T09:29:13.230Z,61.08
2019-06-07T09:30:18.516Z,61.08
2019-06-07T09:32:18.259Z,58.11
2019-06-07T09:34:15.095Z,58.78
2019-06-07T09:36:13.533Z,57.23
2019-06-07T09:38:02.660Z,58.98
2019-06-07T09:39:14.005Z,59.10
2019-06-07T09:40:24.118Z,58.42
2019-06-07T09:41:12.733Z,56.00
2019-06-07T09:42:12.947Z,56.68
2019-06-07T09:44:23.859Z,59.00
2019-06-07T09:45:14.178Z,58.14
2019-06-07T09:46:16.292Z,57.45
2019-06-07T09:47:31.355Z,57.39
2019-06-07T09:48:16.409Z,57.97
2019-06-07T09:49:21.106Z,59.03
2019-06-07T09:52:12.840Z,55.74
2019-06-07T09:53:21.738Z,54.28
2019-06-07T09:55:02.384Z,57.58
2019-06-07T09:55:23.783Z,57.39
2019-06-07T09:56:12.792Z,58.58
2019-06-07T09:57:17.533Z,54.70
2019-06-07T09:59:13.226Z,57.00
2019-06-07T10:00:39.034Z,57.97
2019-06-07T10:01:13.947Z,57.39
2019-06-07T10:02:13.780Z,55.87
2019-06-07T10:03:21.227Z,54.70
2019-06-07T10:04:28.499Z,56.61
2019-06-07T10:05:14.357Z,56.54
2019-06-07T10:06:13.591Z,54.90
2019-06-07T10:07:30.549Z,55.18
2019-06-07T10:08:41.330Z,56.47
2019-06-07T10:11:12.633Z,58.51
2019-06-07T10:15:12.641Z,53.49
2019-06-07T10:16:12.672Z,54.07
2019-06-07T10:17:13.067Z,54.46
2019-06-07T10:18:12.713Z,52.52
2019-06-07T10:19:12.716Z,52.52
2019-06-07T10:20:12.856Z,53.88
2019-06-07T10:21:25.464Z,55.33
2019-06-07T10:23:13.011Z,51.81
2019-06-07T10:25:13.211Z,54.82
2019-06-07T10:29:13.000Z,53.97
2019-06-07T10:30:12.755Z,54.20
2019-06-07T10:31:12.810Z,54.78
2019-06-07T10:32:12.823Z,54.68
2019-06-07T10:33:12.752Z,54.29
2019-06-07T10:38:12.697Z,55.62
2019-06-07T10:40:12.650Z,55.79
2019-06-07T10:41:13.198Z,53.95
2019-06-07T10:42:12.667Z,53.39
2019-06-07T10:43:14.553Z,54.56
2019-06-07T10:44:13.204Z,56.72
2019-06-07T10:45:12.666Z,53.83
2019-06-07T10:46:12.671Z,53.03
2019-06-07T10:47:12.660Z,53.54
2019-06-07T10:48:25.471Z,51.57
2019-06-07T10:49:12.785Z,51.38
2019-06-07T10:50:12.812Z,51.45
2019-06-07T10:51:14.745Z,53.30
2019-06-07T10:52:13.322Z,53.30
2019-06-07T10:54:24.750Z,54.13
2019-06-07T10:55:12.775Z,54.52
2019-06-07T10:57:16.060Z,52.67
2019-06-07T10:58:13.263Z,53.32
2019-06-07T10:59:15.732Z,52.94
2019-06-07T11:00:13.592Z,55.29
2019-06-07T11:02:14.078Z,54.05
2019-06-07T11:04:13.840Z,49.49
2019-06-07T11:06:14.213Z,52.98
2019-06-07T11:07:14.336Z,52.69
2019-06-07T11:08:13.686Z,54.18
2019-06-07T11:09:14.129Z,52.04
2019-06-07T11:10:18.801Z,53.52
2019-06-07T11:11:12.853Z,52.16
2019-06-07T11:13:12.856Z,50.31
2019-06-07T11:14:12.842Z,48.83
2019-06-07T11:16:13.379Z,50.87
2019-06-07T11:19:16.368Z,50.78
2019-06-07T11:21:14.203Z,51.17
2019-06-07T11:22:14.275Z,54.08
2019-06-07T11:24:14.320Z,53.42
2019-06-07T11:25:12.926Z,52.26
2019-06-07T11:26:12.833Z,52.26
2019-06-07T11:27:14.077Z,52.48
2019-06-07T11:28:14.497Z,52.38
2019-06-07T11:29:12.893Z,52.40
2019-06-07T11:31:13.364Z,50.16
2019-06-07T11:32:12.782Z,49.58
2019-06-07T11:33:15.776Z,50.34
2019-06-07T11:34:14.578Z,48.46
2019-06-07T11:35:14.015Z,50.99
2019-06-07T11:36:12.974Z,51.39
2019-06-07T11:37:13.791Z,51.02
2019-06-07T11:38:13.005Z,49.46
2019-06-07T11:39:15.051Z,50.73
2019-06-07T11:47:14.556Z,50.97
2019-06-07T11:49:19.080Z,50.46
2019-06-07T11:50:13.764Z,51.95
2019-06-07T11:52:13.890Z,49.58
2019-06-07T11:53:14.635Z,47.83
2019-06-07T11:54:16.232Z,48.10
2019-06-07T11:55:19.183Z,49.17
2019-06-07T11:56:14.442Z,49.10
2019-06-07T11:58:24.821Z,48.78
2019-06-07T11:59:13.401Z,48.17
2019-06-07T12:00:13.962Z,49.92
2019-06-07T12:01:14.986Z,48.80
2019-06-07T12:02:13.384Z,51.65
2019-06-07T12:03:13.841Z,51.48
2019-06-07T12:04:14.089Z,52.19
2019-06-07T12:06:14.551Z,51.82
2019-06-07T12:08:14.021Z,50.78
2019-06-07T12:11:14.282Z,49.12
2019-06-07T12:12:12.939Z,48.54
2019-06-07T12:13:14.982Z,47.95
2019-06-07T12:14:13.102Z,48.51
2019-06-07T12:15:13.330Z,47.34
2019-06-07T12:16:13.247Z,47.63
2019-06-07T12:17:13.442Z,46.95
2019-06-07T12:18:13.173Z,48.41
2019-06-07T12:19:13.608Z,48.90
2019-06-07T12:20:14.748Z,48.54
2019-06-07T12:21:13.631Z,49.34
2019-06-07T12:23:14.160Z,48.85
2019-06-07T12:24:14.094Z,48.95
2019-06-07T12:26:14.319Z,49.71
2019-06-07T12:27:14.612Z,50.82
2019-06-07T12:28:13.007Z,52.82
2019-06-07T12:31:13.062Z,50.16
2019-06-07T12:32:19.606Z,50.36
2019-06-07T12:33:13.561Z,48.34
2019-06-07T12:34:13.486Z,49.12
2019-06-07T12:36:13.560Z,51.09
2019-06-07T12:37:13.917Z,48.36
2019-06-07T12:38:14.615Z,48.97
2019-06-07T12:39:13.904Z,51.31
2019-06-07T12:41:14.027Z,50.04
2019-06-07T12:42:14.933Z,48.78
2019-06-07T12:43:14.456Z,49.98
2019-06-07T12:44:14.463Z,49.95
2019-06-07T12:46:15.336Z,49.78
2019-06-07T12:47:13.061Z,50.78
2019-06-07T12:48:21.300Z,52.21
2019-06-07T12:50:13.506Z,55.82
2019-06-07T12:51:13.178Z,57.25
2019-06-07T12:52:16.039Z,55.78
2019-06-07T12:54:13.330Z,52.04
2019-06-07T12:56:13.570Z,50.92
2019-06-07T12:59:13.865Z,50.68
2019-06-07T13:02:14.204Z,50.48
2019-06-07T13:03:14.268Z,49.71
2019-06-07T13:04:14.305Z,50.68
2019-06-07T13:05:13.043Z,50.19
2019-06-07T13:07:13.210Z,48.14
2019-06-07T13:08:13.263Z,48.05
2019-06-07T13:09:12.958Z,48.83
2019-06-07T13:10:13.245Z,49.12
2019-06-07T13:11:17.543Z,47.52
2019-06-07T13:12:13.485Z,48.54
2019-06-07T13:13:13.001Z,49.41
2019-06-07T13:15:16.014Z,51.55
2019-06-07T13:16:13.199Z,50.12
2019-06-07T13:17:13.433Z,49.66
2019-06-07T13:18:15.157Z,50.58
2019-06-07T13:19:13.988Z,49.54
2019-06-07T13:20:13.489Z,48.49
2019-06-07T13:21:13.262Z,48.80
2019-06-07T13:22:13.424Z,48.34
2019-06-07T13:23:13.157Z,47.36
2019-06-07T13:24:13.453Z,48.05
2019-06-07T13:25:13.091Z,47.44
2019-06-07T13:26:16.880Z,46.88
2019-06-07T13:27:12.955Z,47.67
2019-06-07T13:28:13.302Z,47.19
2019-06-07T13:29:13.166Z,46.60
2019-06-07T13:30:12.964Z,46.58
2019-06-07T13:31:12.970Z,47.27
2019-06-07T13:32:13.455Z,46.21
2019-06-07T13:33:13.879Z,44.55
2019-06-07T13:34:14.233Z,46.11
2019-06-07T13:36:13.269Z,45.94
2019-06-07T13:37:13.274Z,46.41
2019-06-07T13:39:13.407Z,45.90
2019-06-07T13:40:13.083Z,46.93
2019-06-07T13:42:13.039Z,48.73
2019-06-07T13:43:13.030Z,47.49
2019-06-07T13:44:13.052Z,48.97
2019-06-07T13:45:13.384Z,46.88
2019-06-07T13:46:13.237Z,46.07
2019-06-07T13:47:13.064Z,47.83
2019-06-07T13:48:13.163Z,47.17
2019-06-07T13:49:13.662Z,46.12
2019-06-07T13:50:13.391Z,47.85
2019-06-07T13:51:13.099Z,50.34
2019-06-07T13:52:14.039Z,49.17
2019-06-07T13:54:13.057Z,46.92
2019-06-07T13:55:13.125Z,47.24
2019-06-07T13:57:13.104Z,47.46
2019-06-07T13:58:13.161Z,47.75
2019-06-07T13:59:13.307Z,46.29
2019-06-07T14:00:13.087Z,46.24
2019-06-07T14:01:13.012Z,48.27
2019-06-07T14:02:13.069Z,50.78
2019-06-07T14:03:13.246Z,51.29
2019-06-07T14:05:13.305Z,50.12
2019-06-07T14:07:13.075Z,52.40
2019-06-07T14:09:13.578Z,51.90
2019-06-07T14:10:13.150Z,50.16
2019-06-07T14:12:13.370Z,47.95
2019-06-07T14:13:13.576Z,49.12
2019-06-07T14:14:13.161Z,49.22
2019-06-07T14:15:13.000Z,47.34
2019-06-07T14:16:13.026Z,46.97
2019-06-07T14:17:13.189Z,48.39
2019-06-07T14:18:13.724Z,51.63
2019-06-07T14:19:13.748Z,50.56
2019-06-07T14:20:13.987Z,50.65
2019-06-07T14:22:13.115Z,50.90
2019-06-07T14:23:13.014Z,49.73
2019-06-07T14:24:13.472Z,50.02
2019-06-07T14:25:13.046Z,49.51
2019-06-07T14:26:14.086Z,50.48
2019-06-07T14:27:13.607Z,50.12
2019-06-07T14:28:13.192Z,50.24
2019-06-07T14:29:18.665Z,49.68
2019-06-07T14:30:13.266Z,50.29
2019-06-07T14:31:13.398Z,47.56
2019-06-07T14:32:14.535Z,47.44
2019-06-07T14:33:13.738Z,48.88
2019-06-07T14:35:13.103Z,51.12
2019-06-07T14:36:13.211Z,51.95
2019-06-07T14:37:13.113Z,48.83
2019-06-07T14:38:13.071Z,49.29
2019-06-07T14:39:13.193Z,49.07
2019-06-07T14:40:13.299Z,51.07
2019-06-07T14:41:13.238Z,50.21
2019-06-07T14:43:13.145Z,49.93
2019-06-07T14:47:13.479Z,48.68
2019-06-07T14:48:13.572Z,49.07
2019-06-07T14:49:12.993Z,48.39
2019-06-07T14:50:12.994Z,49.05
2019-06-07T14:51:13.094Z,49.49
2019-06-07T14:52:13.144Z,51.21
2019-06-07T14:53:13.405Z,51.73
2019-06-07T14:54:13.107Z,51.63
2019-06-07T14:55:13.477Z,52.56
2019-06-07T14:56:13.381Z,51.21
2019-06-07T14:57:13.008Z,50.14
2019-06-07T14:58:13.798Z,49.73
2019-06-07T14:59:13.472Z,50.70
2019-06-07T15:03:13.512Z,52.67
2019-06-07T15:04:13.053Z,51.24
2019-06-07T15:05:13.932Z,50.43
2019-06-07T15:06:13.146Z,51.90
2019-06-07T15:08:13.227Z,51.34
2019-06-07T15:09:13.063Z,50.48
2019-06-07T15:10:13.143Z,50.38
2019-06-07T15:12:24.535Z,49.73
2019-06-07T15:13:13.059Z,50.29
2019-06-07T15:14:16.664Z,50.53
2019-06-07T15:15:13.069Z,51.51
2019-06-07T15:16:13.372Z,53.19
2019-06-07T15:17:13.573Z,53.21
2019-06-07T15:19:13.019Z,50.68
2019-06-07T15:20:14.088Z,52.14
2019-06-07T15:21:13.688Z,50.41
2019-06-07T15:22:12.935Z,50.70
2019-06-07T15:23:13.423Z,50.68
2019-06-07T15:26:12.972Z,51.85
2019-06-07T15:28:13.110Z,51.58
2019-06-07T15:30:15.320Z,52.85
2019-06-07T15:31:13.437Z,52.85
2019-06-07T15:34:13.276Z,52.48
2019-06-07T15:35:12.941Z,51.48
2019-06-07T15:36:13.511Z,52.07
2019-06-07T15:37:13.324Z,52.58
2019-06-07T15:38:12.873Z,50.80
2019-06-07T15:39:14.002Z,52.26
2019-06-07T15:40:13.495Z,53.53
2019-06-07T15:42:13.557Z,51.58
2019-06-07T15:43:13.005Z,52.97
2019-06-07T15:44:13.430Z,54.53
2019-06-07T15:45:12.991Z,54.41
2019-06-07T15:46:13.079Z,52.95
2019-06-07T15:47:14.114Z,52.99
2019-06-07T15:48:12.931Z,55.94
2019-06-07T15:49:12.870Z,56.14
2019-06-07T15:50:13.514Z,56.82
2019-06-07T15:51:13.216Z,55.16
2019-06-07T15:53:13.660Z,54.97
2019-06-07T15:54:14.101Z,54.77
2019-06-07T15:55:13.328Z,55.04
2019-06-07T16:01:13.656Z,57.10
2019-06-07T16:02:12.915Z,57.42
2019-06-07T16:04:14.264Z,56.54
2019-06-07T16:07:13.351Z,57.81
2019-06-07T16:10:12.837Z,56.54
2019-06-07T16:11:13.137Z,57.32
2019-06-07T16:12:19.107Z,56.93
2019-06-07T16:13:12.952Z,57.06
2019-06-07T16:14:13.250Z,56.18
2019-06-07T16:16:12.980Z,57.15
2019-06-07T16:18:14.488Z,55.89
2019-06-07T16:19:14.618Z,55.89
2019-06-07T16:20:12.826Z,56.09
2019-06-07T16:21:13.107Z,56.57
2019-06-07T16:23:13.074Z,56.74
2019-06-07T16:26:13.635Z,56.37
2019-06-07T16:28:12.825Z,57.00
2019-06-07T16:29:13.693Z,57.59
2019-06-07T16:30:12.960Z,57.49
2019-06-07T16:31:12.691Z,57.49
2019-06-07T16:32:14.723Z,56.35
2019-06-07T16:34:12.785Z,58.26
2019-06-07T16:37:13.564Z,59.07
2019-06-07T16:38:14.345Z,58.49
2019-06-07T16:40:13.557Z,57.71
2019-06-07T16:41:12.927Z,58.59
2019-06-07T16:42:13.014Z,58.10
2019-06-07T16:43:17.730Z,59.27
2019-06-07T16:44:12.696Z,58.10
2019-06-07T16:45:12.656Z,59.07
2019-06-07T16:46:12.605Z,58.49
2019-06-07T16:47:12.674Z,59.05
2019-06-07T16:48:12.625Z,58.56
2019-06-07T16:49:13.362Z,58.26
2019-06-07T16:51:12.555Z,60.02
2019-06-07T16:52:12.586Z,58.82
2019-06-07T16:53:12.563Z,59.99
2019-06-07T16:54:13.342Z,61.38
2019-06-07T16:55:12.571Z,59.92